sensor_id;sensor_type;location;lat;lon;timestamp;P1;durP1;ratioP1;P2;durP2;ratioP2
51288;SDS011;37372;52.294;5.152;2023-06-24T00:01:00;8.55;;;6.47;;
51288;SDS011;37372;52.294;5.152;2023-06-24T00:03:26;9.23;;;6.22;;
51288;SDS011;37372;52.294;5.152;2023-06-24T00:05:51;9.35;;;6.15;;
51288;SDS011;37372;52.294;5.152;2023-06-24T00:08:18;10.10;;;6.05;;
51288;SDS011;37372;52.294;5.152;2023-06-24T00:10:47;7.03;;;5.40;;
51288;SDS011;37372;52.294;5.152;2023-06-24T00:13:14;8.38;;;5.65;;
51288;SDS011;37372;52.294;5.152;2023-06-24T00:15:40;7.38;;;5.45;;
51288;SDS011;37372;52.294;5.152;2023-06-24T00:18:09;8.57;;;5.50;;
51288;SDS011;37372;52.294;5.152;2023-06-24T00:20:35;8.13;;;6.25;;
51288;SDS011;37372;52.294;5.152;2023-06-24T00:23:01;11.00;;;6.32;;
51288;SDS011;37372;52.294;5.152;2023-06-24T00:25:27;9.18;;;5.47;;
51288;SDS011;37372;52.294;5.152;2023-06-24T00:27:53;8.02;;;5.55;;
51288;SDS011;37372;52.294;5.152;2023-06-24T00:30:18;7.90;;;5.57;;
51288;SDS011;37372;52.294;5.152;2023-06-24T00:32:44;10.57;;;6.70;;
51288;SDS011;37372;52.294;5.152;2023-06-24T00:35:09;6.07;;;4.82;;
51288;SDS011;37372;52.294;5.152;2023-06-24T00:37:37;8.88;;;5.40;;
51288;SDS011;37372;52.294;5.152;2023-06-24T00:40:03;6.15;;;4.80;;
51288;SDS011;37372;52.294;5.152;2023-06-24T00:42:30;9.38;;;6.18;;
51288;SDS011;37372;52.294;5.152;2023-06-24T00:44:56;9.95;;;5.53;;
51288;SDS011;37372;52.294;5.152;2023-06-24T00:47:21;9.82;;;5.35;;
51288;SDS011;37372;52.294;5.152;2023-06-24T00:49:48;7.20;;;5.65;;
51288;SDS011;37372;52.294;5.152;2023-06-24T00:52:13;8.25;;;5.70;;
51288;SDS011;37372;52.294;5.152;2023-06-24T00:54:40;8.90;;;5.18;;
51288;SDS011;37372;52.294;5.152;2023-06-24T00:57:09;7.95;;;5.70;;
51288;SDS011;37372;52.294;5.152;2023-06-24T00:59:35;9.63;;;5.32;;
51288;SDS011;37372;52.294;5.152;2023-06-24T01:02:02;11.00;;;5.82;;
51288;SDS011;37372;52.294;5.152;2023-06-24T01:04:29;8.82;;;5.47;;
51288;SDS011;37372;52.294;5.152;2023-06-24T01:06:57;11.27;;;5.38;;
51288;SDS011;37372;52.294;5.152;2023-06-24T01:09:23;11.25;;;6.30;;
51288;SDS011;37372;52.294;5.152;2023-06-24T01:11:49;7.32;;;5.38;;
51288;SDS011;37372;52.294;5.152;2023-06-24T01:14:15;7.82;;;5.28;;
51288;SDS011;37372;52.294;5.152;2023-06-24T01:36:42;6.63;;;3.53;;
51288;SDS011;37372;52.294;5.152;2023-06-24T01:39:12;8.65;;;4.75;;
51288;SDS011;37372;52.294;5.152;2023-06-24T01:41:41;7.43;;;3.72;;
51288;SDS011;37372;52.294;5.152;2023-06-24T01:44:12;5.88;;;3.92;;
51288;SDS011;37372;52.294;5.152;2023-06-24T01:46:41;7.05;;;3.78;;
51288;SDS011;37372;52.294;5.152;2023-06-24T01:49:10;6.63;;;3.58;;
51288;SDS011;37372;52.294;5.152;2023-06-24T01:51:38;4.65;;;3.42;;
51288;SDS011;37372;52.294;5.152;2023-06-24T01:54:07;6.83;;;3.77;;
51288;SDS011;37372;52.294;5.152;2023-06-24T01:56:36;6.95;;;3.85;;
51288;SDS011;37372;52.294;5.152;2023-06-24T01:59:04;7.80;;;3.80;;
51288;SDS011;37372;52.294;5.152;2023-06-24T02:01:32;4.60;;;3.25;;
51288;SDS011;37372;52.294;5.152;2023-06-24T02:04:00;6.97;;;3.40;;
51288;SDS011;37372;52.294;5.152;2023-06-24T02:06:28;6.55;;;3.97;;
51288;SDS011;37372;52.294;5.152;2023-06-24T02:08:56;6.25;;;3.78;;
51288;SDS011;37372;52.294;5.152;2023-06-24T02:11:23;7.22;;;3.63;;
51288;SDS011;37372;52.294;5.152;2023-06-24T02:13:51;5.72;;;3.05;;
51288;SDS011;37372;52.294;5.152;2023-06-24T02:16:20;8.75;;;3.22;;
51288;SDS011;37372;52.294;5.152;2023-06-24T02:18:46;6.68;;;2.40;;
51288;SDS011;37372;52.294;5.152;2023-06-24T02:21:12;4.15;;;2.72;;
51288;SDS011;37372;52.294;5.152;2023-06-24T02:23:41;5.90;;;3.67;;
51288;SDS011;37372;52.294;5.152;2023-06-24T02:26:08;7.25;;;3.38;;
51288;SDS011;37372;52.294;5.152;2023-06-24T02:28:34;7.10;;;3.00;;
51288;SDS011;37372;52.294;5.152;2023-06-24T02:31:00;5.82;;;2.92;;
51288;SDS011;37372;52.294;5.152;2023-06-24T02:33:26;4.57;;;3.00;;
51288;SDS011;37372;52.294;5.152;2023-06-24T02:35:52;4.53;;;2.95;;
51288;SDS011;37372;52.294;5.152;2023-06-24T02:38:17;5.38;;;2.88;;
51288;SDS011;37372;52.294;5.152;2023-06-24T02:40:43;5.53;;;3.42;;
51288;SDS011;37372;52.294;5.152;2023-06-24T02:43:10;5.00;;;2.88;;
51288;SDS011;37372;52.294;5.152;2023-06-24T02:45:38;4.47;;;2.75;;
51288;SDS011;37372;52.294;5.152;2023-06-24T02:48:04;7.25;;;3.03;;
51288;SDS011;37372;52.294;5.152;2023-06-24T02:50:31;6.75;;;3.10;;
51288;SDS011;37372;52.294;5.152;2023-06-24T02:52:58;4.45;;;2.63;;
51288;SDS011;37372;52.294;5.152;2023-06-24T02:55:24;7.95;;;2.88;;
51288;SDS011;37372;52.294;5.152;2023-06-24T02:57:51;5.03;;;2.97;;
51288;SDS011;37372;52.294;5.152;2023-06-24T03:00:17;5.88;;;2.83;;
51288;SDS011;37372;52.294;5.152;2023-06-24T03:02:43;4.70;;;2.58;;
51288;SDS011;37372;52.294;5.152;2023-06-24T03:05:10;8.93;;;3.10;;
51288;SDS011;37372;52.294;5.152;2023-06-24T03:07:36;6.85;;;2.95;;
51288;SDS011;37372;52.294;5.152;2023-06-24T03:10:03;7.35;;;2.97;;
51288;SDS011;37372;52.294;5.152;2023-06-24T03:12:30;6.25;;;3.30;;
51288;SDS011;37372;52.294;5.152;2023-06-24T03:14:56;6.63;;;3.80;;
51288;SDS011;37372;52.294;5.152;2023-06-24T03:17:21;5.50;;;3.20;;
51288;SDS011;37372;52.294;5.152;2023-06-24T03:19:48;5.28;;;2.90;;
51288;SDS011;37372;52.294;5.152;2023-06-24T03:22:13;5.90;;;3.10;;
51288;SDS011;37372;52.294;5.152;2023-06-24T03:24:38;6.25;;;3.17;;
51288;SDS011;37372;52.294;5.152;2023-06-24T03:27:04;6.03;;;3.17;;
51288;SDS011;37372;52.294;5.152;2023-06-24T03:29:29;6.07;;;3.53;;
51288;SDS011;37372;52.294;5.152;2023-06-24T03:31:54;5.70;;;2.95;;
51288;SDS011;37372;52.294;5.152;2023-06-24T03:34:20;4.78;;;2.88;;
51288;SDS011;37372;52.294;5.152;2023-06-24T03:36:46;8.93;;;3.63;;
51288;SDS011;37372;52.294;5.152;2023-06-24T03:39:12;5.78;;;2.95;;
51288;SDS011;37372;52.294;5.152;2023-06-24T03:41:38;5.55;;;3.05;;
51288;SDS011;37372;52.294;5.152;2023-06-24T03:44:04;7.28;;;3.20;;
51288;SDS011;37372;52.294;5.152;2023-06-24T03:46:30;8.20;;;3.15;;
51288;SDS011;37372;52.294;5.152;2023-06-24T03:48:58;5.65;;;3.05;;
51288;SDS011;37372;52.294;5.152;2023-06-24T03:51:25;5.82;;;3.17;;
51288;SDS011;37372;52.294;5.152;2023-06-24T03:53:50;7.00;;;4.35;;
51288;SDS011;37372;52.294;5.152;2023-06-24T03:56:16;4.63;;;3.17;;
51288;SDS011;37372;52.294;5.152;2023-06-24T03:58:42;5.50;;;3.10;;
51288;SDS011;37372;52.294;5.152;2023-06-24T04:01:09;6.05;;;3.22;;
51288;SDS011;37372;52.294;5.152;2023-06-24T04:03:35;5.88;;;3.38;;
51288;SDS011;37372;52.294;5.152;2023-06-24T04:06:00;5.40;;;2.90;;
51288;SDS011;37372;52.294;5.152;2023-06-24T04:08:29;4.30;;;2.50;;
51288;SDS011;37372;52.294;5.152;2023-06-24T04:10:54;6.05;;;3.45;;
51288;SDS011;37372;52.294;5.152;2023-06-24T04:13:20;6.18;;;3.42;;
51288;SDS011;37372;52.294;5.152;2023-06-24T04:15:46;5.75;;;3.45;;
51288;SDS011;37372;52.294;5.152;2023-06-24T04:18:11;5.18;;;3.20;;
51288;SDS011;37372;52.294;5.152;2023-06-24T04:20:37;5.65;;;2.80;;
51288;SDS011;37372;52.294;5.152;2023-06-24T04:23:03;4.13;;;2.70;;
51288;SDS011;37372;52.294;5.152;2023-06-24T04:25:29;6.28;;;3.38;;
51288;SDS011;37372;52.294;5.152;2023-06-24T04:27:55;6.20;;;2.80;;
51288;SDS011;37372;52.294;5.152;2023-06-24T04:30:20;5.78;;;2.75;;
51288;SDS011;37372;52.294;5.152;2023-06-24T04:32:46;4.68;;;2.95;;
51288;SDS011;37372;52.294;5.152;2023-06-24T04:35:12;6.15;;;3.38;;
51288;SDS011;37372;52.294;5.152;2023-06-24T04:37:38;7.10;;;3.40;;
51288;SDS011;37372;52.294;5.152;2023-06-24T04:40:04;6.25;;;3.55;;
51288;SDS011;37372;52.294;5.152;2023-06-24T04:42:30;6.95;;;3.40;;
51288;SDS011;37372;52.294;5.152;2023-06-24T04:44:55;4.78;;;3.20;;
51288;SDS011;37372;52.294;5.152;2023-06-24T04:47:21;6.57;;;4.13;;
51288;SDS011;37372;52.294;5.152;2023-06-24T04:49:47;6.30;;;3.97;;
51288;SDS011;37372;52.294;5.152;2023-06-24T04:52:12;11.45;;;4.97;;
51288;SDS011;37372;52.294;5.152;2023-06-24T04:54:38;8.07;;;4.82;;
51288;SDS011;37372;52.294;5.152;2023-06-24T04:57:15;6.90;;;4.85;;
51288;SDS011;37372;52.294;5.152;2023-06-24T04:59:48;8.38;;;5.30;;
51288;SDS011;37372;52.294;5.152;2023-06-24T05:02:14;9.68;;;5.93;;
51288;SDS011;37372;52.294;5.152;2023-06-24T05:04:40;7.30;;;4.82;;
51288;SDS011;37372;52.294;5.152;2023-06-24T05:07:05;7.13;;;5.00;;
51288;SDS011;37372;52.294;5.152;2023-06-24T05:09:30;11.18;;;6.40;;
51288;SDS011;37372;52.294;5.152;2023-06-24T05:11:56;8.70;;;6.10;;
51288;SDS011;37372;52.294;5.152;2023-06-24T05:14:21;10.40;;;6.47;;
51288;SDS011;37372;52.294;5.152;2023-06-24T05:16:47;9.60;;;6.20;;
51288;SDS011;37372;52.294;5.152;2023-06-24T05:19:12;11.05;;;6.25;;
51288;SDS011;37372;52.294;5.152;2023-06-24T05:21:38;10.95;;;6.68;;
51288;SDS011;37372;52.294;5.152;2023-06-24T05:24:03;8.80;;;6.03;;
51288;SDS011;37372;52.294;5.152;2023-06-24T05:26:29;9.90;;;6.85;;
51288;SDS011;37372;52.294;5.152;2023-06-24T05:28:54;11.68;;;6.55;;
51288;SDS011;37372;52.294;5.152;2023-06-24T05:31:20;9.23;;;5.70;;
51288;SDS011;37372;52.294;5.152;2023-06-24T05:33:46;10.05;;;6.13;;
51288;SDS011;37372;52.294;5.152;2023-06-24T05:36:12;9.90;;;6.47;;
51288;SDS011;37372;52.294;5.152;2023-06-24T05:38:37;7.70;;;5.47;;
51288;SDS011;37372;52.294;5.152;2023-06-24T05:41:03;10.60;;;5.32;;
51288;SDS011;37372;52.294;5.152;2023-06-24T05:43:28;11.98;;;6.95;;
51288;SDS011;37372;52.294;5.152;2023-06-24T05:45:54;8.50;;;5.65;;
51288;SDS011;37372;52.294;5.152;2023-06-24T05:48:20;9.93;;;5.95;;
51288;SDS011;37372;52.294;5.152;2023-06-24T05:50:45;8.60;;;5.45;;
51288;SDS011;37372;52.294;5.152;2023-06-24T05:53:11;13.10;;;6.32;;
51288;SDS011;37372;52.294;5.152;2023-06-24T05:55:36;9.57;;;6.63;;
51288;SDS011;37372;52.294;5.152;2023-06-24T05:58:02;8.77;;;5.35;;
51288;SDS011;37372;52.294;5.152;2023-06-24T06:00:27;8.75;;;4.90;;
51288;SDS011;37372;52.294;5.152;2023-06-24T06:02:53;7.38;;;5.07;;
51288;SDS011;37372;52.294;5.152;2023-06-24T06:05:19;8.35;;;4.63;;
51288;SDS011;37372;52.294;5.152;2023-06-24T06:07:44;8.95;;;4.60;;
51288;SDS011;37372;52.294;5.152;2023-06-24T06:10:10;8.23;;;5.70;;
51288;SDS011;37372;52.294;5.152;2023-06-24T06:12:36;9.38;;;5.40;;
51288;SDS011;37372;52.294;5.152;2023-06-24T06:15:01;10.23;;;5.82;;
51288;SDS011;37372;52.294;5.152;2023-06-24T06:17:27;7.30;;;4.78;;
51288;SDS011;37372;52.294;5.152;2023-06-24T06:19:53;8.10;;;4.55;;
51288;SDS011;37372;52.294;5.152;2023-06-24T06:22:21;9.38;;;5.35;;
51288;SDS011;37372;52.294;5.152;2023-06-24T06:24:47;11.75;;;5.50;;
51288;SDS011;37372;52.294;5.152;2023-06-24T06:27:12;10.13;;;5.80;;
51288;SDS011;37372;52.294;5.152;2023-06-24T06:29:38;9.57;;;5.75;;
51288;SDS011;37372;52.294;5.152;2023-06-24T06:32:03;9.80;;;5.75;;
51288;SDS011;37372;52.294;5.152;2023-06-24T06:34:29;8.63;;;4.95;;
51288;SDS011;37372;52.294;5.152;2023-06-24T06:36:55;7.95;;;5.32;;
51288;SDS011;37372;52.294;5.152;2023-06-24T06:39:20;7.80;;;5.32;;
51288;SDS011;37372;52.294;5.152;2023-06-24T06:41:45;9.88;;;5.53;;
51288;SDS011;37372;52.294;5.152;2023-06-24T06:44:11;8.82;;;4.85;;
51288;SDS011;37372;52.294;5.152;2023-06-24T06:46:36;10.10;;;5.55;;
51288;SDS011;37372;52.294;5.152;2023-06-24T06:49:01;10.48;;;5.53;;
51288;SDS011;37372;52.294;5.152;2023-06-24T06:51:27;11.18;;;6.13;;
51288;SDS011;37372;52.294;5.152;2023-06-24T06:53:52;9.77;;;5.60;;
51288;SDS011;37372;52.294;5.152;2023-06-24T06:56:22;10.13;;;5.03;;
51288;SDS011;37372;52.294;5.152;2023-06-24T06:58:49;7.82;;;4.90;;
51288;SDS011;37372;52.294;5.152;2023-06-24T07:01:15;12.23;;;6.40;;
51288;SDS011;37372;52.294;5.152;2023-06-24T07:03:40;11.00;;;5.18;;
51288;SDS011;37372;52.294;5.152;2023-06-24T07:06:06;9.75;;;5.45;;
51288;SDS011;37372;52.294;5.152;2023-06-24T07:08:31;7.30;;;4.28;;
51288;SDS011;37372;52.294;5.152;2023-06-24T07:10:56;7.18;;;5.07;;
51288;SDS011;37372;52.294;5.152;2023-06-24T07:13:22;8.63;;;4.78;;
51288;SDS011;37372;52.294;5.152;2023-06-24T07:15:47;13.07;;;6.07;;
51288;SDS011;37372;52.294;5.152;2023-06-24T07:18:13;20.05;;;6.82;;
51288;SDS011;37372;52.294;5.152;2023-06-24T07:20:39;8.20;;;5.45;;
51288;SDS011;37372;52.294;5.152;2023-06-24T07:23:04;6.85;;;4.88;;
51288;SDS011;37372;52.294;5.152;2023-06-24T07:25:30;8.15;;;5.70;;
51288;SDS011;37372;52.294;5.152;2023-06-24T07:27:55;11.68;;;5.47;;
51288;SDS011;37372;52.294;5.152;2023-06-24T07:30:21;10.13;;;5.32;;
51288;SDS011;37372;52.294;5.152;2023-06-24T07:32:46;9.35;;;5.75;;
51288;SDS011;37372;52.294;5.152;2023-06-24T07:35:12;10.93;;;5.32;;
51288;SDS011;37372;52.294;5.152;2023-06-24T07:37:38;11.20;;;4.95;;
51288;SDS011;37372;52.294;5.152;2023-06-24T07:40:04;9.40;;;5.22;;
51288;SDS011;37372;52.294;5.152;2023-06-24T07:42:33;8.52;;;5.50;;
51288;SDS011;37372;52.294;5.152;2023-06-24T07:44:59;6.90;;;5.03;;
51288;SDS011;37372;52.294;5.152;2023-06-24T07:47:24;12.60;;;5.03;;
51288;SDS011;37372;52.294;5.152;2023-06-24T07:49:50;8.55;;;4.80;;
51288;SDS011;37372;52.294;5.152;2023-06-24T07:52:16;8.50;;;5.03;;
51288;SDS011;37372;52.294;5.152;2023-06-24T07:54:42;8.70;;;5.00;;
51288;SDS011;37372;52.294;5.152;2023-06-24T07:57:08;10.60;;;4.72;;
51288;SDS011;37372;52.294;5.152;2023-06-24T07:59:33;12.57;;;5.05;;
51288;SDS011;37372;52.294;5.152;2023-06-24T08:01:59;8.93;;;4.57;;
51288;SDS011;37372;52.294;5.152;2023-06-24T08:04:24;8.27;;;4.93;;
51288;SDS011;37372;52.294;5.152;2023-06-24T08:06:50;8.30;;;4.68;;
51288;SDS011;37372;52.294;5.152;2023-06-24T08:09:16;9.40;;;5.35;;
51288;SDS011;37372;52.294;5.152;2023-06-24T08:11:42;10.18;;;5.40;;
51288;SDS011;37372;52.294;5.152;2023-06-24T08:14:08;8.93;;;5.70;;
51288;SDS011;37372;52.294;5.152;2023-06-24T08:16:33;9.48;;;6.28;;
51288;SDS011;37372;52.294;5.152;2023-06-24T08:18:58;9.95;;;6.43;;
51288;SDS011;37372;52.294;5.152;2023-06-24T08:21:24;9.23;;;6.03;;
51288;SDS011;37372;52.294;5.152;2023-06-24T08:23:49;7.28;;;5.15;;
51288;SDS011;37372;52.294;5.152;2023-06-24T08:26:16;8.20;;;5.68;;
51288;SDS011;37372;52.294;5.152;2023-06-24T08:28:42;10.45;;;5.80;;
51288;SDS011;37372;52.294;5.152;2023-06-24T08:31:07;8.43;;;5.43;;
51288;SDS011;37372;52.294;5.152;2023-06-24T08:33:33;9.00;;;5.40;;
51288;SDS011;37372;52.294;5.152;2023-06-24T08:35:58;11.00;;;5.97;;
51288;SDS011;37372;52.294;5.152;2023-06-24T08:38:25;7.82;;;4.70;;
51288;SDS011;37372;52.294;5.152;2023-06-24T08:40:50;13.75;;;4.95;;
51288;SDS011;37372;52.294;5.152;2023-06-24T08:43:17;8.00;;;5.38;;
51288;SDS011;37372;52.294;5.152;2023-06-24T08:45:42;12.73;;;6.10;;
51288;SDS011;37372;52.294;5.152;2023-06-24T08:48:08;9.20;;;5.43;;
51288;SDS011;37372;52.294;5.152;2023-06-24T08:50:40;7.93;;;5.88;;
51288;SDS011;37372;52.294;5.152;2023-06-24T08:53:08;9.45;;;5.85;;
51288;SDS011;37372;52.294;5.152;2023-06-24T08:55:42;9.90;;;6.38;;
51288;SDS011;37372;52.294;5.152;2023-06-24T08:58:09;8.68;;;6.10;;
51288;SDS011;37372;52.294;5.152;2023-06-24T09:00:34;7.88;;;5.80;;
51288;SDS011;37372;52.294;5.152;2023-06-24T09:03:00;9.02;;;5.38;;
51288;SDS011;37372;52.294;5.152;2023-06-24T09:05:25;7.93;;;5.15;;
51288;SDS011;37372;52.294;5.152;2023-06-24T09:07:50;14.82;;;5.30;;
51288;SDS011;37372;52.294;5.152;2023-06-24T09:10:35;11.15;;;6.30;;
51288;SDS011;37372;52.294;5.152;2023-06-24T09:13:03;14.98;;;6.60;;
51288;SDS011;37372;52.294;5.152;2023-06-24T09:15:35;9.38;;;6.03;;
51288;SDS011;37372;52.294;5.152;2023-06-24T09:18:02;8.18;;;5.88;;
51288;SDS011;37372;52.294;5.152;2023-06-24T09:20:30;7.45;;;5.63;;
51288;SDS011;37372;52.294;5.152;2023-06-24T09:23:03;8.38;;;5.90;;
51288;SDS011;37372;52.294;5.152;2023-06-24T09:25:30;10.23;;;6.47;;
51288;SDS011;37372;52.294;5.152;2023-06-24T09:27:59;9.00;;;6.32;;
51288;SDS011;37372;52.294;5.152;2023-06-24T09:30:25;9.10;;;5.13;;
51288;SDS011;37372;52.294;5.152;2023-06-24T09:32:52;9.70;;;5.43;;
51288;SDS011;37372;52.294;5.152;2023-06-24T09:35:19;11.68;;;6.30;;
51288;SDS011;37372;52.294;5.152;2023-06-24T09:37:55;9.13;;;5.63;;
51288;SDS011;37372;52.294;5.152;2023-06-24T09:40:22;10.77;;;5.03;;
51288;SDS011;37372;52.294;5.152;2023-06-24T09:42:52;10.90;;;6.53;;
51288;SDS011;37372;52.294;5.152;2023-06-24T09:45:24;10.00;;;5.88;;
51288;SDS011;37372;52.294;5.152;2023-06-24T09:47:51;13.35;;;7.38;;
51288;SDS011;37372;52.294;5.152;2023-06-24T09:50:18;10.85;;;6.25;;
51288;SDS011;37372;52.294;5.152;2023-06-24T09:52:44;9.77;;;6.82;;
51288;SDS011;37372;52.294;5.152;2023-06-24T09:55:14;11.05;;;6.65;;
51288;SDS011;37372;52.294;5.152;2023-06-24T09:57:44;9.52;;;7.45;;
51288;SDS011;37372;52.294;5.152;2023-06-24T10:00:15;18.67;;;8.57;;
51288;SDS011;37372;52.294;5.152;2023-06-24T10:02:43;9.80;;;7.18;;
51288;SDS011;37372;52.294;5.152;2023-06-24T10:05:10;10.18;;;6.13;;
51288;SDS011;37372;52.294;5.152;2023-06-24T10:07:36;9.50;;;6.95;;
51288;SDS011;37372;52.294;5.152;2023-06-24T10:10:04;10.00;;;6.45;;
51288;SDS011;37372;52.294;5.152;2023-06-24T10:12:30;11.05;;;6.43;;
51288;SDS011;37372;52.294;5.152;2023-06-24T10:14:57;11.43;;;6.78;;
51288;SDS011;37372;52.294;5.152;2023-06-24T10:17:24;11.18;;;7.28;;
51288;SDS011;37372;52.294;5.152;2023-06-24T10:19:51;9.65;;;6.43;;
51288;SDS011;37372;52.294;5.152;2023-06-24T10:22:17;12.18;;;7.38;;
51288;SDS011;37372;52.294;5.152;2023-06-24T10:24:47;10.95;;;6.05;;
51288;SDS011;37372;52.294;5.152;2023-06-24T10:27:16;10.60;;;5.82;;
51288;SDS011;37372;52.294;5.152;2023-06-24T10:29:46;8.82;;;6.07;;
51288;SDS011;37372;52.294;5.152;2023-06-24T10:32:17;9.60;;;6.20;;
51288;SDS011;37372;52.294;5.152;2023-06-24T10:34:44;12.35;;;6.10;;
51288;SDS011;37372;52.294;5.152;2023-06-24T10:39:44;10.52;;;7.07;;
51288;SDS011;37372;52.294;5.152;2023-06-24T10:47:40;12.00;;;6.88;;
51288;SDS011;37372;52.294;5.152;2023-06-24T10:50:08;9.40;;;7.55;;
51288;SDS011;37372;52.294;5.152;2023-06-24T10:52:39;10.82;;;6.38;;
51288;SDS011;37372;52.294;5.152;2023-06-24T10:55:05;9.63;;;5.78;;
51288;SDS011;37372;52.294;5.152;2023-06-24T10:57:32;8.00;;;5.93;;
51288;SDS011;37372;52.294;5.152;2023-06-24T10:59:58;10.05;;;7.18;;
51288;SDS011;37372;52.294;5.152;2023-06-24T11:02:24;11.60;;;6.63;;
51288;SDS011;37372;52.294;5.152;2023-06-24T11:04:51;10.80;;;7.50;;
51288;SDS011;37372;52.294;5.152;2023-06-24T11:07:19;8.02;;;5.63;;
51288;SDS011;37372;52.294;5.152;2023-06-24T11:09:52;11.20;;;6.97;;
51288;SDS011;37372;52.294;5.152;2023-06-24T11:12:19;12.47;;;7.77;;
51288;SDS011;37372;52.294;5.152;2023-06-24T11:14:49;13.80;;;6.53;;
51288;SDS011;37372;52.294;5.152;2023-06-24T11:17:14;9.15;;;5.47;;
51288;SDS011;37372;52.294;5.152;2023-06-24T11:19:40;8.82;;;5.55;;
51288;SDS011;37372;52.294;5.152;2023-06-24T11:22:06;7.18;;;5.75;;
51288;SDS011;37372;52.294;5.152;2023-06-24T11:24:32;8.80;;;4.35;;
51288;SDS011;37372;52.294;5.152;2023-06-24T11:26:58;12.13;;;6.07;;
51288;SDS011;37372;52.294;5.152;2023-06-24T11:29:24;6.07;;;4.35;;
51288;SDS011;37372;52.294;5.152;2023-06-24T11:31:53;9.63;;;5.38;;
51288;SDS011;37372;52.294;5.152;2023-06-24T11:34:18;9.80;;;5.18;;
51288;SDS011;37372;52.294;5.152;2023-06-24T11:36:44;10.30;;;4.95;;
51288;SDS011;37372;52.294;5.152;2023-06-24T11:39:19;9.07;;;4.55;;
51288;SDS011;37372;52.294;5.152;2023-06-24T11:41:52;8.48;;;5.82;;
51288;SDS011;37372;52.294;5.152;2023-06-24T11:44:23;9.50;;;5.82;;
51288;SDS011;37372;52.294;5.152;2023-06-24T11:46:49;9.95;;;5.78;;
51288;SDS011;37372;52.294;5.152;2023-06-24T11:49:15;7.45;;;5.20;;
51288;SDS011;37372;52.294;5.152;2023-06-24T11:51:47;8.93;;;6.00;;
51288;SDS011;37372;52.294;5.152;2023-06-24T11:54:15;16.25;;;7.30;;
51288;SDS011;37372;52.294;5.152;2023-06-24T11:56:43;11.75;;;6.25;;
51288;SDS011;37372;52.294;5.152;2023-06-24T11:59:20;10.40;;;6.80;;
51288;SDS011;37372;52.294;5.152;2023-06-24T12:01:54;10.57;;;6.70;;
51288;SDS011;37372;52.294;5.152;2023-06-24T12:04:21;13.10;;;6.53;;
51288;SDS011;37372;52.294;5.152;2023-06-24T12:06:52;10.48;;;6.65;;
51288;SDS011;37372;52.294;5.152;2023-06-24T12:09:18;10.20;;;6.70;;
51288;SDS011;37372;52.294;5.152;2023-06-24T12:11:44;8.80;;;5.93;;
51288;SDS011;37372;52.294;5.152;2023-06-24T12:14:10;8.70;;;6.30;;
51288;SDS011;37372;52.294;5.152;2023-06-24T12:16:35;8.98;;;5.82;;
51288;SDS011;37372;52.294;5.152;2023-06-24T12:19:02;8.23;;;5.13;;
51288;SDS011;37372;52.294;5.152;2023-06-24T12:21:27;11.20;;;6.05;;
51288;SDS011;37372;52.294;5.152;2023-06-24T12:23:53;8.85;;;6.15;;
51288;SDS011;37372;52.294;5.152;2023-06-24T12:26:19;10.93;;;6.57;;
51288;SDS011;37372;52.294;5.152;2023-06-24T12:28:44;11.68;;;6.93;;
51288;SDS011;37372;52.294;5.152;2023-06-24T12:31:10;9.63;;;6.53;;
51288;SDS011;37372;52.294;5.152;2023-06-24T12:33:36;8.73;;;5.25;;
51288;SDS011;37372;52.294;5.152;2023-06-24T12:36:01;12.82;;;6.20;;
51288;SDS011;37372;52.294;5.152;2023-06-24T12:38:27;9.57;;;5.75;;
51288;SDS011;37372;52.294;5.152;2023-06-24T12:40:52;7.47;;;4.85;;
51288;SDS011;37372;52.294;5.152;2023-06-24T12:43:18;6.60;;;4.25;;
51288;SDS011;37372;52.294;5.152;2023-06-24T12:45:43;8.13;;;5.63;;
51288;SDS011;37372;52.294;5.152;2023-06-24T12:48:09;8.43;;;6.28;;
51288;SDS011;37372;52.294;5.152;2023-06-24T12:50:35;10.27;;;6.80;;
51288;SDS011;37372;52.294;5.152;2023-06-24T12:53:01;8.48;;;5.80;;
51288;SDS011;37372;52.294;5.152;2023-06-24T12:55:27;9.52;;;6.13;;
51288;SDS011;37372;52.294;5.152;2023-06-24T12:57:52;13.18;;;6.80;;
51288;SDS011;37372;52.294;5.152;2023-06-24T13:00:21;11.07;;;7.18;;
51288;SDS011;37372;52.294;5.152;2023-06-24T13:02:47;9.82;;;5.85;;
51288;SDS011;37372;52.294;5.152;2023-06-24T13:05:13;7.25;;;5.43;;
51288;SDS011;37372;52.294;5.152;2023-06-24T13:07:38;6.68;;;5.25;;
51288;SDS011;37372;52.294;5.152;2023-06-24T13:10:04;9.38;;;4.72;;
51288;SDS011;37372;52.294;5.152;2023-06-24T13:12:33;6.90;;;5.03;;
51288;SDS011;37372;52.294;5.152;2023-06-24T13:14:59;8.88;;;6.30;;
51288;SDS011;37372;52.294;5.152;2023-06-24T13:17:24;9.48;;;6.43;;
51288;SDS011;37372;52.294;5.152;2023-06-24T13:19:50;8.95;;;6.00;;
51288;SDS011;37372;52.294;5.152;2023-06-24T13:22:16;7.85;;;5.68;;
51288;SDS011;37372;52.294;5.152;2023-06-24T13:24:42;10.10;;;5.22;;
51288;SDS011;37372;52.294;5.152;2023-06-24T13:27:08;8.00;;;4.97;;
51288;SDS011;37372;52.294;5.152;2023-06-24T13:29:33;8.57;;;5.20;;
51288;SDS011;37372;52.294;5.152;2023-06-24T13:31:59;9.43;;;6.05;;
51288;SDS011;37372;52.294;5.152;2023-06-24T13:34:24;8.95;;;5.63;;
51288;SDS011;37372;52.294;5.152;2023-06-24T13:36:49;8.10;;;5.38;;
51288;SDS011;37372;52.294;5.152;2023-06-24T13:39:15;8.55;;;6.45;;
51288;SDS011;37372;52.294;5.152;2023-06-24T13:41:44;9.10;;;5.10;;
51288;SDS011;37372;52.294;5.152;2023-06-24T13:44:10;8.45;;;4.95;;
51288;SDS011;37372;52.294;5.152;2023-06-24T13:46:35;8.48;;;5.25;;
51288;SDS011;37372;52.294;5.152;2023-06-24T13:49:01;7.82;;;5.00;;
51288;SDS011;37372;52.294;5.152;2023-06-24T13:51:27;8.88;;;5.72;;
51288;SDS011;37372;52.294;5.152;2023-06-24T13:53:54;6.47;;;4.47;;
51288;SDS011;37372;52.294;5.152;2023-06-24T13:56:20;6.75;;;5.10;;
51288;SDS011;37372;52.294;5.152;2023-06-24T13:58:47;8.80;;;5.47;;
51288;SDS011;37372;52.294;5.152;2023-06-24T14:01:13;8.10;;;5.45;;
51288;SDS011;37372;52.294;5.152;2023-06-24T14:03:39;7.20;;;5.18;;
51288;SDS011;37372;52.294;5.152;2023-06-24T14:06:04;6.53;;;4.65;;
51288;SDS011;37372;52.294;5.152;2023-06-24T14:08:30;9.07;;;6.03;;
51288;SDS011;37372;52.294;5.152;2023-06-24T14:10:58;11.20;;;5.15;;
51288;SDS011;37372;52.294;5.152;2023-06-24T14:13:24;10.80;;;5.00;;
51288;SDS011;37372;52.294;5.152;2023-06-24T14:15:51;11.25;;;6.18;;
51288;SDS011;37372;52.294;5.152;2023-06-24T14:18:17;12.75;;;5.93;;
51288;SDS011;37372;52.294;5.152;2023-06-24T14:20:42;9.05;;;5.28;;
51288;SDS011;37372;52.294;5.152;2023-06-24T14:23:08;5.63;;;3.75;;
51288;SDS011;37372;52.294;5.152;2023-06-24T14:25:33;31.55;;;7.53;;
51288;SDS011;37372;52.294;5.152;2023-06-24T14:27:58;10.68;;;5.82;;
51288;SDS011;37372;52.294;5.152;2023-06-24T14:30:24;10.80;;;6.25;;
51288;SDS011;37372;52.294;5.152;2023-06-24T14:32:49;9.13;;;6.00;;
51288;SDS011;37372;52.294;5.152;2023-06-24T14:35:15;8.57;;;5.18;;
51288;SDS011;37372;52.294;5.152;2023-06-24T14:37:40;11.15;;;5.82;;
51288;SDS011;37372;52.294;5.152;2023-06-24T14:40:07;8.95;;;6.30;;
51288;SDS011;37372;52.294;5.152;2023-06-24T14:42:33;8.95;;;5.50;;
51288;SDS011;37372;52.294;5.152;2023-06-24T14:44:59;9.68;;;6.20;;
51288;SDS011;37372;52.294;5.152;2023-06-24T14:47:24;9.93;;;5.45;;
51288;SDS011;37372;52.294;5.152;2023-06-24T14:49:49;13.98;;;6.28;;
51288;SDS011;37372;52.294;5.152;2023-06-24T14:52:15;11.77;;;6.40;;
51288;SDS011;37372;52.294;5.152;2023-06-24T14:54:40;12.23;;;5.75;;
51288;SDS011;37372;52.294;5.152;2023-06-24T14:57:06;8.60;;;4.95;;
51288;SDS011;37372;52.294;5.152;2023-06-24T14:59:34;9.95;;;5.22;;
51288;SDS011;37372;52.294;5.152;2023-06-24T15:02:00;9.35;;;4.70;;
51288;SDS011;37372;52.294;5.152;2023-06-24T15:04:26;11.55;;;5.60;;
51288;SDS011;37372;52.294;5.152;2023-06-24T15:06:51;11.60;;;4.78;;